createdAt,value
2023-04-28T00:01:05.931Z,11.11
2023-04-28T00:06:08.422Z,11.05
2023-04-28T00:11:11.529Z,10.41
2023-04-28T00:16:13.914Z,10.77
2023-04-28T00:21:18.254Z,10.54
2023-04-28T00:26:21.278Z,10.24
2023-04-28T00:31:24.439Z,10.31
2023-04-28T00:36:27.122Z,10.19
2023-04-28T00:41:29.623Z,10.44
2023-04-28T00:46:34.324Z,10.57
2023-04-28T00:51:36.738Z,10.19
2023-04-28T00:56:39.165Z,10.43
2023-04-28T01:01:41.719Z,10.36
2023-04-28T01:06:46.257Z,10.29
2023-04-28T01:11:48.843Z,9.72
2023-04-28T01:17:10.894Z,9.83
2023-04-28T01:22:16.996Z,9.94
2023-04-28T01:27:20.030Z,10.20
2023-04-28T01:32:22.398Z,10.17
2023-04-28T01:37:24.860Z,10.18
2023-04-28T01:42:29.317Z,9.33
2023-04-28T01:47:32.300Z,10.06
2023-04-28T01:52:34.720Z,9.87
2023-04-28T01:57:40.502Z,10.14
2023-04-28T02:02:43.022Z,9.88
2023-04-28T02:07:45.758Z,9.41
2023-04-28T02:12:48.067Z,10.09
2023-04-28T02:17:50.640Z,9.24
2023-04-28T02:22:52.986Z,10.03
2023-04-28T02:27:55.433Z,9.73
2023-04-28T02:32:57.802Z,9.85
2023-04-28T02:38:01.084Z,9.74
2023-04-28T02:43:03.500Z,10.01
2023-04-28T02:48:06.009Z,9.86
2023-04-28T02:53:08.339Z,9.48
2023-04-28T02:58:10.685Z,9.72
2023-04-28T03:03:13.619Z,9.38
2023-04-28T03:08:16.400Z,9.78
2023-04-28T03:13:18.718Z,9.98
2023-04-28T03:18:22.847Z,10.16
2023-04-28T03:23:25.266Z,10.19
2023-04-28T03:28:27.882Z,9.72
2023-04-28T03:33:30.429Z,10.24
2023-04-28T03:38:35.353Z,10.35
2023-04-28T03:43:37.794Z,10.32
2023-04-28T03:48:56.608Z,10.42
2023-04-28T03:54:00.001Z,10.63
2023-04-28T03:59:02.565Z,10.71
2023-04-28T04:04:05.861Z,10.80
2023-04-28T04:09:08.505Z,10.90
2023-04-28T04:14:11.407Z,10.56
2023-04-28T04:19:14.391Z,10.88
2023-04-28T04:24:18.327Z,11.11
2023-04-28T04:29:21.094Z,10.93
2023-04-28T04:34:23.747Z,11.41
2023-04-28T04:39:27.295Z,11.03
2023-04-28T04:44:29.675Z,11.26
2023-04-28T04:49:32.608Z,11.38
2023-04-28T04:54:34.940Z,11.70
2023-04-28T04:59:37.869Z,11.81
2023-04-28T05:04:45.332Z,10.36
2023-04-28T05:09:50.052Z,11.42
2023-04-28T05:14:52.609Z,11.31
2023-04-28T05:19:56.872Z,11.42
2023-04-28T05:25:00.068Z,11.53
2023-04-28T05:30:02.580Z,11.39
2023-04-28T05:35:07.231Z,11.84
2023-04-28T05:40:10.556Z,11.86
2023-04-28T05:45:15.979Z,11.23
2023-04-28T05:50:21.392Z,11.67
2023-04-28T05:55:29.709Z,11.43
2023-04-28T06:00:40.301Z,11.69
2023-04-28T06:05:44.063Z,11.56
2023-04-28T06:10:48.519Z,11.41
2023-04-28T06:15:53.002Z,11.84
2023-04-28T06:20:57.736Z,11.55
2023-04-28T06:26:00.918Z,11.72
2023-04-28T06:31:03.441Z,11.77
2023-04-28T06:36:06.283Z,11.78
2023-04-28T06:41:08.773Z,11.67
2023-04-28T06:46:14.174Z,11.87
2023-04-28T06:51:18.165Z,11.59
2023-04-28T06:56:20.808Z,12.16
2023-04-28T07:01:24.058Z,12.36
2023-04-28T07:06:27.924Z,12.65
2023-04-28T07:11:30.542Z,12.57
2023-04-28T07:16:32.977Z,12.31
2023-04-28T07:21:35.419Z,13.03
2023-04-28T07:26:37.754Z,13.36
2023-04-28T07:31:40.252Z,13.45
2023-04-28T07:36:42.893Z,13.61
2023-04-28T07:41:45.371Z,13.34
2023-04-28T07:46:47.801Z,13.56
2023-04-28T07:51:53.970Z,13.30
2023-04-28T07:56:58.432Z,13.51
2023-04-28T08:02:01.050Z,13.35
2023-04-28T08:07:04.020Z,13.29
2023-04-28T08:12:06.413Z,13.48
2023-04-28T08:17:09.740Z,12.82
2023-04-28T08:22:12.863Z,12.93
2023-04-28T08:27:15.285Z,13.18
2023-04-28T08:32:17.903Z,13.31
2023-04-28T08:37:20.617Z,13.25
2023-04-28T08:42:23.095Z,13.09
2023-04-28T08:47:38.895Z,13.55
2023-04-28T08:52:42.972Z,13.51
2023-04-28T08:57:55.543Z,13.21
2023-04-28T09:02:58.331Z,13.44
2023-04-28T09:08:02.993Z,13.41
2023-04-28T09:13:05.680Z,13.36
2023-04-28T09:18:09.021Z,13.18
2023-04-28T09:23:19.140Z,12.91
2023-04-28T09:28:22.578Z,13.33
2023-04-28T09:33:25.316Z,13.33
2023-04-28T09:38:27.812Z,12.42
2023-04-28T09:43:36.593Z,13.53
2023-04-28T09:48:39.208Z,13.23
2023-04-28T09:53:41.850Z,13.01
2023-04-28T09:58:45.402Z,13.18
2023-04-28T10:03:49.721Z,13.17
2023-04-28T10:08:52.461Z,13.39
2023-04-28T10:13:55.508Z,13.39
2023-04-28T10:18:58.267Z,13.39
2023-04-28T10:24:10.917Z,13.44
2023-04-28T10:29:13.734Z,12.92
2023-04-28T10:34:23.400Z,13.56
2023-04-28T10:39:25.759Z,13.18
2023-04-28T10:44:31.284Z,13.59
2023-04-28T10:50:12.413Z,12.86
2023-04-28T10:55:36.815Z,13.82
2023-04-28T11:00:40.434Z,13.57
2023-04-28T11:06:23.186Z,14.05
2023-04-28T11:11:39.300Z,13.73
2023-04-28T11:16:51.193Z,14.02
2023-04-28T11:21:56.472Z,13.02
2023-04-28T11:27:02.894Z,13.13
2023-04-28T11:32:06.808Z,13.87
2023-04-28T11:37:28.234Z,13.82
2023-04-28T11:42:34.150Z,13.67
2023-04-28T11:47:37.185Z,13.44
2023-04-28T11:52:51.747Z,13.72
2023-04-28T11:58:18.425Z,13.69
2023-04-28T12:03:20.944Z,13.45
2023-04-28T12:08:30.176Z,13.37
2023-04-28T12:13:32.646Z,13.15
2023-04-28T12:18:36.772Z,13.12
2023-04-28T12:23:40.120Z,12.91
2023-04-28T12:28:42.759Z,12.99
2023-04-28T12:33:45.276Z,12.66
2023-04-28T12:38:50.789Z,12.05
2023-04-28T12:43:53.944Z,11.99
2023-04-28T12:48:58.091Z,12.18
2023-04-28T12:54:00.451Z,12.31
2023-04-28T12:59:03.933Z,12.27
2023-04-28T13:04:07.672Z,11.85
2023-04-28T13:09:17.025Z,11.82
2023-04-28T13:14:37.936Z,11.36
2023-04-28T13:19:41.010Z,11.84
2023-04-28T13:24:43.796Z,11.42
2023-04-28T13:29:46.420Z,11.71
2023-04-28T13:34:49.158Z,11.63
2023-04-28T13:39:51.594Z,11.75
2023-04-28T13:44:54.059Z,11.72
2023-04-28T13:49:56.498Z,11.54
2023-04-28T13:54:58.836Z,11.25
2023-04-28T14:00:02.454Z,10.90
2023-04-28T14:05:10.534Z,11.37
2023-04-28T14:10:13.015Z,10.76
2023-04-28T14:15:16.535Z,10.93
2023-04-28T14:20:19.011Z,11.04
2023-04-28T14:25:21.886Z,10.97
2023-04-28T14:30:24.957Z,10.78
2023-04-28T14:35:27.579Z,10.59
2023-04-28T14:40:29.982Z,10.61
2023-04-28T14:45:32.587Z,9.88
2023-04-28T14:50:35.407Z,10.79
2023-04-28T14:55:37.878Z,10.80
2023-04-28T15:00:40.448Z,10.35
2023-04-28T15:05:44.406Z,9.81
2023-04-28T15:10:46.978Z,10.32
2023-04-28T15:15:51.267Z,10.75
2023-04-28T15:20:55.873Z,10.27
2023-04-28T15:25:59.994Z,10.22
2023-04-28T15:31:03.384Z,9.62
2023-04-28T15:36:06.085Z,10.53
2023-04-28T15:41:09.545Z,10.33
2023-04-28T15:46:12.496Z,10.20
2023-04-28T15:51:14.892Z,10.04
2023-04-28T15:56:19.646Z,10.20
2023-04-28T16:01:23.025Z,10.14
2023-04-28T16:06:26.024Z,9.84
2023-04-28T16:11:30.031Z,9.36
2023-04-28T16:16:32.379Z,9.18
2023-04-28T16:21:35.868Z,9.74
2023-04-28T16:26:38.270Z,9.33
2023-04-28T16:31:40.833Z,9.77
2023-04-28T16:36:43.254Z,9.93
2023-04-28T16:41:47.909Z,9.73
2023-04-28T16:46:50.306Z,9.56
2023-04-28T16:52:04.349Z,9.90
2023-04-28T16:57:06.958Z,9.75
2023-04-28T17:02:09.352Z,9.54
2023-04-28T17:07:11.835Z,9.34
2023-04-28T17:12:15.610Z,9.23
2023-04-28T17:17:18.516Z,9.20
2023-04-28T17:22:21.093Z,8.82
2023-04-28T17:27:24.193Z,9.04
2023-04-28T17:32:27.581Z,8.55
2023-04-28T17:37:33.963Z,8.87
2023-04-28T17:42:36.479Z,8.17
2023-04-28T17:47:38.970Z,8.42
2023-04-28T17:52:43.958Z,8.66
2023-04-28T17:57:46.657Z,8.47
2023-04-28T18:02:52.863Z,8.12
2023-04-28T18:08:04.373Z,8.40
2023-04-28T18:13:09.175Z,8.11
2023-04-28T18:18:11.919Z,8.19
2023-04-28T18:23:14.624Z,8.49
2023-04-28T18:28:17.182Z,8.43
2023-04-28T18:33:22.855Z,7.66
2023-04-28T18:38:26.461Z,8.30
2023-04-28T18:43:28.981Z,8.14
2023-04-28T18:48:32.327Z,8.13
2023-04-28T18:53:36.240Z,7.84
2023-04-28T18:58:41.110Z,7.50
2023-04-28T19:03:44.234Z,8.09
2023-04-28T19:08:46.722Z,7.67
2023-04-28T19:13:51.969Z,6.86
2023-04-28T19:18:54.723Z,6.98
2023-04-28T19:24:04.793Z,7.22
2023-04-28T19:29:07.226Z,7.42
2023-04-28T19:34:15.618Z,7.55
2023-04-28T19:39:18.160Z,7.70
2023-04-28T19:44:20.930Z,7.26
2023-04-28T19:49:23.487Z,7.54
2023-04-28T19:54:26.441Z,7.31
2023-04-28T19:59:29.161Z,7.38
2023-04-28T20:04:31.833Z,7.02
2023-04-28T20:09:38.149Z,7.48
2023-04-28T20:14:40.617Z,7.03
2023-04-28T20:19:44.633Z,6.80
2023-04-28T20:24:47.385Z,6.65
2023-04-28T20:29:50.139Z,6.92
2023-04-28T20:34:52.729Z,6.87
2023-04-28T20:39:57.882Z,7.12
2023-04-28T20:45:00.338Z,6.34
2023-04-28T20:50:03.571Z,6.75
2023-04-28T20:55:06.894Z,6.48
2023-04-28T21:00:10.978Z,6.78
2023-04-28T21:05:13.518Z,6.71
2023-04-28T21:10:15.841Z,6.98
2023-04-28T21:15:18.260Z,6.77
2023-04-28T21:20:20.919Z,6.91
2023-04-28T21:25:23.364Z,6.23
2023-04-28T21:30:27.099Z,6.75
2023-04-28T21:35:29.477Z,6.72
2023-04-28T21:40:31.856Z,6.68
2023-04-28T21:45:34.288Z,6.69
2023-04-28T21:50:37.713Z,6.55
2023-04-28T21:55:40.303Z,5.97
2023-04-28T22:00:45.204Z,6.25
2023-04-28T22:05:47.533Z,5.90
2023-04-28T22:10:49.927Z,6.14
2023-04-28T22:15:52.602Z,6.49
2023-04-28T22:20:54.963Z,6.12
2023-04-28T22:26:00.223Z,6.24
2023-04-28T22:31:02.563Z,6.38
2023-04-28T22:36:05.555Z,6.18
2023-04-28T22:41:07.875Z,5.72
2023-04-28T22:46:10.608Z,5.55
2023-04-28T22:51:13.077Z,5.90
2023-04-28T22:56:16.084Z,5.72
2023-04-28T23:01:18.534Z,6.25
2023-04-28T23:06:20.873Z,5.66
2023-04-28T23:11:24.541Z,5.55
2023-04-28T23:16:27.101Z,6.04
2023-04-28T23:21:29.490Z,4.94
2023-04-28T23:26:31.840Z,5.84
2023-04-28T23:31:40.013Z,4.76
2023-04-28T23:36:42.579Z,4.10
2023-04-28T23:41:44.964Z,5.94
2023-04-28T23:46:49.501Z,5.70
2023-04-28T23:51:52.060Z,5.63
2023-04-28T23:56:56.549Z,4.81
